createdAt,value
2018-01-04T00:00:29.725Z,8.43
2018-01-04T00:02:57.203Z,7.10
2018-01-04T00:05:24.707Z,5.07
2018-01-04T00:07:52.148Z,10.10
2018-01-04T00:10:19.638Z,9.77
2018-01-04T00:12:47.122Z,16.00
2018-01-04T00:15:15.335Z,9.17
2018-01-04T00:17:42.821Z,14.53
2018-01-04T00:20:10.279Z,8.90
2018-01-04T00:22:37.723Z,7.70
2018-01-04T00:25:05.184Z,10.53
2018-01-04T00:27:32.665Z,6.97
2018-01-04T00:30:00.124Z,11.47
2018-01-04T00:32:27.568Z,14.60
2018-01-04T00:34:55.024Z,7.60
2018-01-04T00:37:22.466Z,7.30
2018-01-04T00:39:49.920Z,10.67
2018-01-04T00:42:17.373Z,6.63
2018-01-04T00:44:44.818Z,7.93
2018-01-04T00:47:12.278Z,6.50
2018-01-04T00:49:39.733Z,10.83
2018-01-04T00:52:07.188Z,9.13
2018-01-04T00:54:34.640Z,9.53
2018-01-04T00:57:02.108Z,9.33
2018-01-04T00:59:29.655Z,6.93
2018-01-04T01:01:57.109Z,7.00
2018-01-04T01:04:24.564Z,7.83
2018-01-04T01:06:52.020Z,6.37
2018-01-04T01:09:19.512Z,6.00
2018-01-04T01:11:46.963Z,7.90
2018-01-04T01:14:14.416Z,7.70
2018-01-04T01:16:41.868Z,12.63
2018-01-04T01:19:09.320Z,7.90
2018-01-04T01:21:36.779Z,15.17
2018-01-04T01:24:04.231Z,10.73
2018-01-04T01:26:31.687Z,14.23
2018-01-04T01:28:59.135Z,8.47
2018-01-04T01:31:26.604Z,11.00
2018-01-04T01:33:54.060Z,7.40
2018-01-04T01:36:21.512Z,7.93
2018-01-04T01:38:48.964Z,8.40
2018-01-04T01:41:16.403Z,6.77
2018-01-04T01:43:43.855Z,6.33
2018-01-04T01:46:11.298Z,6.10
2018-01-04T01:48:38.747Z,13.87
2018-01-04T01:51:06.187Z,8.63
2018-01-04T01:53:34.414Z,4.53
2018-01-04T01:56:01.853Z,8.23
2018-01-04T01:58:29.308Z,8.93
2018-01-04T02:00:56.752Z,8.17
2018-01-04T02:03:24.199Z,7.00
2018-01-04T02:05:52.448Z,6.30
2018-01-04T02:08:19.899Z,13.57
2018-01-04T02:10:47.367Z,10.43
2018-01-04T02:13:15.032Z,11.70
2018-01-04T02:15:42.479Z,17.57
2018-01-04T02:18:21.722Z,9.17
2018-01-04T02:21:01.839Z,10.63
2018-01-04T02:26:37.887Z,10.20
2018-01-04T02:29:17.259Z,11.17
2018-01-04T02:34:57.504Z,15.10
2018-01-04T02:37:36.907Z,10.77
2018-01-04T02:40:17.052Z,8.23
2018-01-04T02:42:57.251Z,16.43
2018-01-04T02:48:24.450Z,9.77
2018-01-04T02:50:51.899Z,4.00
2018-01-04T02:53:19.344Z,9.13
2018-01-04T02:55:46.800Z,5.40
2018-01-04T02:58:14.255Z,8.27
2018-01-04T03:00:41.700Z,7.30
2018-01-04T03:03:09.143Z,5.73
2018-01-04T03:05:36.604Z,12.03
2018-01-04T03:08:04.043Z,14.03
2018-01-04T03:10:31.506Z,11.83
2018-01-04T03:12:58.947Z,8.20
2018-01-04T03:15:26.408Z,13.60
2018-01-04T03:17:53.861Z,8.43
2018-01-04T03:20:22.079Z,9.40
2018-01-04T03:22:55.210Z,4.87
2018-01-04T03:25:29.223Z,12.13
2018-01-04T03:28:03.176Z,13.07
2018-01-04T03:30:36.711Z,9.20
2018-01-04T03:33:10.576Z,15.10
2018-01-04T03:35:44.604Z,16.13
2018-01-04T03:38:17.622Z,12.30
2018-01-04T03:40:51.607Z,8.10
2018-01-04T03:46:28.903Z,8.07
2018-01-04T03:49:02.111Z,9.70
2018-01-04T03:51:35.368Z,11.13
2018-01-04T03:54:08.604Z,10.13
2018-01-04T03:56:41.771Z,8.80
2018-01-04T03:59:14.847Z,4.57
2018-01-04T04:01:47.903Z,10.13
2018-01-04T04:04:20.954Z,9.80
2018-01-04T04:06:53.976Z,12.50
2018-01-04T04:09:21.427Z,11.47
2018-01-04T04:11:48.898Z,6.80
2018-01-04T04:14:16.339Z,4.97
2018-01-04T04:16:43.786Z,8.50
2018-01-04T04:19:12.007Z,6.30
2018-01-04T04:21:39.462Z,3.90
2018-01-04T04:24:06.918Z,7.63
2018-01-04T04:26:34.359Z,2.63
2018-01-04T04:29:01.811Z,3.53
2018-01-04T04:31:30.097Z,4.10
2018-01-04T04:33:57.552Z,3.10
2018-01-04T04:36:24.999Z,4.20
2018-01-04T04:38:52.460Z,1.73
2018-01-04T04:41:19.915Z,1.93
2018-01-04T04:43:47.356Z,3.70
2018-01-04T04:46:14.807Z,2.60
2018-01-04T04:48:42.250Z,4.27
2018-01-04T04:51:10.470Z,3.60
2018-01-04T04:53:37.910Z,1.60
2018-01-04T04:56:05.364Z,3.23
2018-01-04T04:58:32.820Z,3.20
2018-01-04T05:01:00.288Z,1.77
2018-01-04T05:03:27.741Z,1.77
2018-01-04T05:05:55.201Z,1.57
2018-01-04T05:08:22.647Z,2.47
2018-01-04T05:10:50.104Z,1.90
2018-01-04T05:13:17.552Z,2.20
2018-01-04T05:15:45.014Z,1.17
2018-01-04T05:18:12.447Z,1.17
2018-01-04T05:20:39.908Z,1.67
2018-01-04T05:23:08.116Z,0.90
2018-01-04T05:25:35.599Z,2.57
2018-01-04T05:28:03.051Z,1.23
2018-01-04T05:30:30.512Z,1.57
2018-01-04T05:32:57.964Z,1.43
2018-01-04T05:35:25.404Z,1.27
2018-01-04T05:37:52.863Z,2.93
2018-01-04T05:40:20.308Z,1.77
2018-01-04T05:42:47.764Z,1.17
2018-01-04T05:45:15.202Z,1.20
2018-01-04T05:47:42.660Z,1.57
2018-01-04T05:50:10.121Z,3.60
2018-01-04T05:52:37.587Z,0.70
2018-01-04T05:55:05.040Z,0.73
2018-01-04T05:57:32.512Z,1.07
2018-01-04T05:59:59.964Z,0.70
2018-01-04T06:02:27.419Z,1.83
2018-01-04T06:04:54.880Z,0.80
2018-01-04T06:07:22.330Z,3.33
2018-01-04T06:09:49.780Z,0.50
2018-01-04T06:12:17.228Z,0.97
2018-01-04T06:14:44.676Z,0.60
2018-01-04T06:17:12.136Z,0.80
2018-01-04T06:19:39.575Z,0.70
2018-01-04T06:22:07.032Z,0.40
2018-01-04T06:24:34.471Z,1.30
2018-01-04T06:27:02.688Z,0.90
2018-01-04T06:29:30.140Z,5.70
2018-01-04T06:31:57.587Z,0.60
2018-01-04T06:34:25.049Z,0.97
2018-01-04T06:36:52.496Z,3.20
2018-01-04T06:39:19.982Z,9.90
2018-01-04T06:41:47.414Z,1.30
2018-01-04T06:44:14.871Z,1.73
2018-01-04T06:46:42.343Z,1.77
2018-01-04T06:49:09.808Z,3.57
2018-01-04T06:51:37.264Z,4.57
2018-01-04T06:54:04.724Z,4.40
2018-01-04T06:56:32.164Z,5.40
2018-01-04T06:58:59.620Z,5.67
2018-01-04T07:01:27.059Z,8.40
2018-01-04T07:03:54.515Z,4.17
2018-01-04T07:06:21.951Z,3.70
2018-01-04T07:08:49.396Z,4.73
2018-01-04T07:11:17.599Z,2.60
2018-01-04T07:13:45.111Z,1.60
2018-01-04T07:16:12.561Z,1.30
2018-01-04T07:18:40.010Z,2.23
2018-01-04T07:21:07.451Z,1.00
2018-01-04T07:23:34.916Z,1.03
2018-01-04T07:26:02.364Z,2.43
2018-01-04T07:28:29.818Z,1.83
2018-01-04T07:30:57.264Z,0.80
2018-01-04T07:33:25.376Z,1.70
2018-01-04T07:35:52.824Z,1.10
2018-01-04T07:38:20.273Z,0.60
2018-01-04T07:40:47.741Z,1.13
2018-01-04T07:43:15.196Z,1.20
2018-01-04T07:45:42.684Z,1.90
2018-01-04T07:48:10.211Z,2.87
2018-01-04T07:50:38.491Z,2.77
2018-01-04T07:53:06.724Z,4.40
2018-01-04T07:55:34.165Z,2.83
2018-01-04T07:58:01.608Z,2.33
2018-01-04T08:00:29.052Z,1.00
2018-01-04T08:02:57.255Z,1.90
2018-01-04T08:05:24.707Z,1.30
2018-01-04T08:07:52.157Z,1.27
2018-01-04T08:10:19.600Z,2.20
2018-01-04T08:12:47.044Z,1.17
2018-01-04T08:15:15.263Z,0.73
2018-01-04T08:17:42.714Z,1.53
2018-01-04T08:20:10.176Z,3.77
2018-01-04T08:22:37.622Z,2.00
2018-01-04T08:25:05.072Z,2.03
2018-01-04T08:27:32.507Z,0.80
2018-01-04T08:29:59.954Z,1.03
2018-01-04T08:32:28.172Z,5.60
2018-01-04T08:34:55.624Z,1.90
2018-01-04T08:37:23.079Z,1.10
2018-01-04T08:39:50.535Z,0.90
2018-01-04T08:42:17.981Z,0.73
2018-01-04T08:44:45.437Z,1.33
2018-01-04T08:47:12.887Z,2.30
2018-01-04T08:49:40.332Z,1.10
2018-01-04T08:52:07.772Z,1.50
2018-01-04T08:54:36.003Z,1.00
2018-01-04T08:57:03.447Z,0.83
2018-01-04T08:59:30.900Z,1.30
2018-01-04T09:01:58.365Z,1.13
2018-01-04T09:04:25.827Z,1.10
2018-01-04T09:06:53.284Z,2.10
2018-01-04T09:09:20.740Z,0.57
2018-01-04T09:11:48.195Z,0.50
2018-01-04T09:14:15.643Z,1.50
2018-01-04T09:16:43.110Z,0.80
2018-01-04T09:19:10.568Z,1.40
2018-01-04T09:21:38.023Z,3.20
2018-01-04T09:24:05.480Z,1.57
2018-01-04T09:26:32.931Z,3.50
2018-01-04T09:29:00.398Z,1.77
2018-01-04T09:31:27.847Z,1.13
2018-01-04T09:33:55.291Z,0.90
2018-01-04T09:36:22.747Z,1.10
2018-01-04T09:38:50.202Z,1.30
2018-01-04T09:41:17.879Z,2.03
2018-01-04T09:43:45.319Z,1.97
2018-01-04T09:46:12.779Z,1.30
2018-01-04T09:48:40.232Z,1.13
2018-01-04T09:51:08.496Z,3.10
2018-01-04T09:53:35.937Z,2.00
2018-01-04T09:56:03.387Z,1.73
2018-01-04T09:58:30.831Z,1.70
2018-01-04T10:00:58.275Z,0.87
2018-01-04T10:03:26.493Z,1.10
2018-01-04T10:05:53.952Z,2.87
2018-01-04T10:08:21.405Z,1.30
2018-01-04T10:10:48.864Z,2.00
2018-01-04T10:13:16.995Z,2.33
2018-01-04T10:15:45.216Z,2.20
2018-01-04T10:18:12.673Z,1.83
2018-01-04T10:20:40.115Z,2.53
2018-01-04T10:23:07.575Z,2.10
2018-01-04T10:25:35.028Z,1.33
2018-01-04T10:28:02.488Z,3.57
2018-01-04T10:30:29.934Z,1.57
2018-01-04T10:32:57.383Z,1.20
2018-01-04T10:35:24.831Z,0.77
2018-01-04T10:37:53.048Z,1.00
2018-01-04T10:40:20.500Z,1.07
2018-01-04T10:42:47.960Z,0.80
2018-01-04T10:45:15.420Z,1.17
2018-01-04T10:47:42.888Z,1.40
2018-01-04T10:50:10.344Z,1.30
2018-01-04T10:52:37.808Z,1.27
2018-01-04T10:55:05.256Z,0.80
2018-01-04T10:57:32.711Z,0.70
2018-01-04T11:00:00.152Z,0.90
2018-01-04T11:02:27.612Z,1.07
2018-01-04T11:04:55.067Z,1.20
2018-01-04T11:07:22.528Z,1.10
2018-01-04T11:09:49.982Z,2.53
2018-01-04T11:12:18.209Z,2.00
2018-01-04T11:14:45.683Z,1.40
2018-01-04T11:17:13.146Z,3.47
2018-01-04T11:19:40.599Z,1.40
2018-01-04T11:22:08.068Z,1.00
2018-01-04T11:24:35.531Z,1.00
2018-01-04T11:27:02.992Z,2.13
2018-01-04T11:29:30.450Z,1.07
2018-01-04T11:31:57.905Z,1.83
2018-01-04T11:34:25.351Z,1.53
2018-01-04T11:36:52.808Z,1.77
2018-01-04T11:39:20.264Z,1.97
2018-01-04T11:41:47.729Z,2.33
2018-01-04T11:44:15.184Z,1.53
2018-01-04T11:46:42.659Z,1.97
2018-01-04T11:49:10.124Z,2.00
2018-01-04T11:51:37.604Z,1.67
2018-01-04T11:54:05.062Z,1.60
2018-01-04T11:56:32.512Z,4.70
2018-01-04T11:59:00.749Z,2.73
2018-01-04T12:01:28.202Z,1.80
2018-01-04T12:03:55.688Z,1.33
2018-01-04T12:06:23.106Z,1.60
2018-01-04T12:08:50.564Z,2.10
2018-01-04T12:11:18.019Z,1.90
2018-01-04T12:13:45.479Z,1.83
2018-01-04T12:16:12.948Z,2.00
2018-01-04T12:18:40.403Z,1.10
2018-01-04T12:21:07.852Z,1.40
2018-01-04T12:23:35.319Z,1.27
2018-01-04T12:26:02.775Z,1.20
2018-01-04T12:28:30.241Z,1.13
2018-01-04T12:30:57.689Z,1.20
2018-01-04T12:33:25.508Z,3.13
2018-01-04T12:35:53.008Z,0.90
2018-01-04T12:38:20.473Z,1.10
2018-01-04T12:40:47.919Z,1.37
2018-01-04T12:43:15.371Z,1.20
2018-01-04T12:45:42.840Z,1.30
2018-01-04T12:48:10.318Z,1.10
2018-01-04T12:50:37.841Z,1.20
2018-01-04T12:53:05.284Z,1.70
2018-01-04T12:55:32.745Z,1.40
2018-01-04T12:58:00.199Z,1.67
2018-01-04T13:00:27.655Z,2.20
2018-01-04T13:02:55.112Z,0.93
2018-01-04T13:05:22.555Z,1.10
2018-01-04T13:07:50.012Z,1.00
2018-01-04T13:10:17.454Z,1.33
2018-01-04T13:12:44.905Z,1.90
2018-01-04T13:15:12.369Z,2.17
2018-01-04T13:17:39.829Z,5.20
2018-01-04T13:20:07.282Z,4.03
2018-01-04T13:22:34.741Z,5.47
2018-01-04T13:25:02.195Z,7.63
2018-01-04T13:27:29.647Z,6.30
2018-01-04T13:29:57.108Z,7.13
2018-01-04T13:32:24.561Z,5.97
2018-01-04T13:34:52.022Z,4.90
2018-01-04T13:37:19.471Z,3.80
2018-01-04T13:39:46.935Z,3.10
2018-01-04T13:42:14.556Z,7.20
2018-01-04T13:44:42.868Z,3.23
2018-01-04T13:47:10.319Z,2.57
2018-01-04T13:49:38.608Z,2.80
2018-01-04T13:52:06.065Z,3.97
2018-01-04T13:54:33.516Z,4.40
2018-01-04T13:57:00.963Z,6.77
2018-01-04T13:59:28.424Z,7.17
2018-01-04T14:01:56.820Z,7.10
2018-01-04T14:04:24.275Z,7.87
2018-01-04T14:06:51.744Z,8.80
2018-01-04T14:09:19.195Z,9.60
2018-01-04T14:11:46.656Z,7.03
2018-01-04T14:14:14.110Z,8.73
2018-01-04T14:16:41.576Z,6.30
2018-01-04T14:19:09.022Z,7.20
2018-01-04T14:21:36.499Z,8.17
2018-01-04T14:24:03.937Z,5.03
2018-01-04T14:26:31.399Z,5.77
2018-01-04T14:28:58.851Z,13.40
2018-01-04T14:31:26.819Z,6.60
2018-01-04T14:33:54.264Z,10.67
2018-01-04T14:36:21.744Z,8.23
2018-01-04T14:38:49.192Z,3.10
2018-01-04T14:41:16.648Z,4.13
2018-01-04T14:43:44.099Z,1.00
2018-01-04T14:46:11.560Z,0.90
2018-01-04T14:48:39.017Z,0.50
2018-01-04T14:51:06.493Z,0.50
2018-01-04T14:53:34.720Z,0.30
2018-01-04T14:56:02.192Z,0.37
2018-01-04T14:58:29.647Z,0.30
2018-01-04T15:00:57.101Z,0.40
2018-01-04T15:03:24.560Z,0.40
2018-01-04T15:05:52.011Z,1.17
2018-01-04T15:08:19.471Z,0.40
2018-01-04T15:10:46.924Z,0.40
2018-01-04T15:13:14.384Z,0.80
2018-01-04T15:15:41.850Z,1.83
2018-01-04T15:18:09.447Z,0.50
2018-01-04T15:20:37.711Z,0.50
2018-01-04T15:23:05.234Z,0.40
2018-01-04T15:25:32.685Z,0.50
2018-01-04T15:28:00.152Z,0.50
2018-01-04T15:30:27.611Z,1.17
2018-01-04T15:32:55.235Z,0.87
2018-01-04T15:35:22.728Z,0.80
2018-01-04T15:37:50.197Z,1.00
2018-01-04T15:40:18.602Z,0.70
2018-01-04T15:42:46.060Z,0.80
2018-01-04T15:45:13.508Z,0.70
2018-01-04T15:47:41.735Z,1.23
2018-01-04T15:50:09.198Z,0.60
2018-01-04T15:52:36.658Z,0.67
2018-01-04T15:55:04.131Z,0.50
2018-01-04T15:57:31.667Z,1.00
2018-01-04T15:59:59.176Z,0.60
2018-01-04T16:02:26.595Z,1.23
2018-01-04T16:04:54.862Z,0.90
2018-01-04T16:07:22.334Z,0.80
2018-01-04T16:09:49.776Z,0.73
2018-01-04T16:12:17.234Z,0.80
2018-01-04T16:14:44.692Z,0.70
2018-01-04T16:17:12.147Z,0.93
2018-01-04T16:19:39.612Z,0.70
2018-01-04T16:22:07.063Z,0.53
2018-01-04T16:24:34.528Z,0.60
2018-01-04T16:27:02.184Z,0.77
2018-01-04T16:29:29.649Z,0.60
2018-01-04T16:31:57.864Z,0.70
2018-01-04T16:34:25.326Z,0.60
2018-01-04T16:36:52.784Z,0.63
2018-01-04T16:39:20.244Z,0.40
2018-01-04T16:41:47.706Z,0.53
2018-01-04T16:44:15.168Z,2.13
2018-01-04T16:46:42.615Z,0.50
2018-01-04T16:49:10.080Z,0.60
2018-01-04T16:51:37.571Z,0.50
2018-01-04T16:54:05.063Z,0.60
2018-01-04T16:56:32.495Z,1.63
2018-01-04T16:59:00.728Z,0.30
2018-01-04T17:01:28.188Z,1.20
2018-01-04T17:03:55.656Z,0.50
2018-01-04T17:06:23.098Z,0.60
2018-01-04T17:08:50.553Z,0.40
2018-01-04T17:11:18.007Z,0.60
2018-01-04T17:13:45.464Z,0.33
2018-01-04T17:16:12.967Z,0.83
2018-01-04T17:18:41.219Z,0.50
2018-01-04T17:21:08.753Z,0.30
2018-01-04T17:23:36.228Z,0.30
2018-01-04T17:26:03.717Z,0.40
2018-01-04T17:28:31.985Z,0.20
2018-01-04T17:30:59.528Z,0.40
2018-01-04T17:33:26.974Z,0.50
2018-01-04T17:35:54.450Z,0.60
2018-01-04T17:38:22.723Z,0.40
2018-01-04T17:40:50.951Z,0.50
2018-01-04T17:43:18.421Z,0.40
2018-01-04T17:45:45.974Z,0.40
2018-01-04T17:48:13.456Z,0.40
2018-01-04T17:50:41.763Z,0.50
2018-01-04T17:53:09.225Z,0.40
2018-01-04T17:55:36.753Z,1.17
2018-01-04T17:58:05.020Z,0.30
2018-01-04T18:00:32.573Z,0.40
2018-01-04T18:03:00.143Z,0.30
2018-01-04T18:05:27.629Z,0.40
2018-01-04T18:07:55.159Z,0.30
2018-01-04T18:10:22.831Z,0.40
2018-01-04T18:12:51.172Z,0.40
2018-01-04T18:15:18.692Z,0.40
2018-01-04T18:17:46.156Z,0.73
2018-01-04T18:20:13.743Z,0.50
2018-01-04T18:22:41.296Z,0.40
2018-01-04T18:25:08.822Z,1.80
2018-01-04T18:27:37.151Z,0.93
2018-01-04T18:30:04.669Z,1.13
2018-01-04T18:32:32.340Z,0.30
2018-01-04T18:34:59.847Z,0.20
2018-01-04T18:37:28.102Z,0.47
2018-01-04T18:39:55.615Z,0.50
2018-01-04T18:42:23.193Z,0.40
2018-01-04T18:44:50.693Z,0.40
2018-01-04T18:47:19.059Z,0.40
2018-01-04T18:49:46.604Z,0.40
2018-01-04T18:52:14.339Z,0.30
2018-01-04T18:54:41.831Z,0.60
2018-01-04T18:57:09.326Z,0.30
2018-01-04T18:59:37.617Z,0.37
2018-01-04T19:02:05.156Z,0.87
2018-01-04T19:04:32.646Z,0.30
2018-01-04T19:07:00.163Z,0.37
2018-01-04T19:09:28.440Z,0.40
2018-01-04T19:11:56.693Z,0.53
2018-01-04T19:14:24.169Z,0.33
2018-01-04T19:16:52.444Z,0.30
2018-01-04T19:19:20.700Z,0.80
2018-01-04T19:21:48.189Z,0.40
2018-01-04T19:24:15.631Z,0.40
2018-01-04T19:26:43.969Z,1.40
2018-01-04T19:29:11.434Z,0.57
2018-01-04T19:31:38.951Z,0.90
2018-01-04T19:34:06.426Z,0.70
2018-01-04T19:36:33.933Z,0.80
2018-01-04T19:39:02.195Z,0.63
2018-01-04T19:41:29.690Z,0.40
2018-01-04T19:43:58.059Z,0.30
2018-01-04T19:46:25.567Z,0.50
2018-01-04T19:48:53.781Z,0.63
2018-01-04T19:51:21.392Z,0.40
2018-01-04T19:53:48.893Z,0.30
2018-01-04T19:56:17.185Z,2.10
2018-01-04T19:58:44.760Z,0.50
2018-01-04T20:01:14.686Z,1.30
2018-01-04T20:03:42.229Z,0.37
2018-01-04T20:06:09.723Z,0.33
2018-01-04T20:08:37.229Z,0.50
2018-01-04T20:14:15.393Z,0.80
2018-01-04T20:16:42.898Z,0.40
2018-01-04T20:19:10.397Z,0.43
2018-01-04T20:21:37.893Z,0.30
2018-01-04T20:24:05.402Z,0.30
2018-01-04T20:26:32.901Z,0.30
2018-01-04T20:29:00.422Z,0.40
2018-01-04T20:31:28.284Z,0.30
2018-01-04T20:33:55.815Z,0.87
2018-01-04T20:36:23.445Z,0.40
2018-01-04T20:38:50.961Z,0.40
2018-01-04T20:41:18.461Z,0.40
2018-01-04T20:43:45.981Z,0.73
2018-01-04T20:46:13.485Z,0.40
2018-01-04T20:48:41.808Z,1.13
2018-01-04T20:51:09.322Z,1.37
2018-01-04T20:53:37.625Z,0.63
2018-01-04T20:56:05.166Z,0.50
2018-01-04T20:58:32.702Z,1.40
2018-01-04T21:01:01.053Z,0.70
2018-01-04T21:03:28.571Z,0.57
2018-01-04T21:05:56.105Z,1.40
2018-01-04T21:08:24.390Z,1.13
2018-01-04T21:10:52.645Z,1.13
2018-01-04T21:13:20.151Z,1.00
2018-01-04T21:15:47.647Z,2.40
2018-01-04T21:18:15.155Z,1.00
2018-01-04T21:20:42.710Z,1.47
2018-01-04T21:23:10.231Z,0.53
2018-01-04T21:25:38.543Z,1.03
2018-01-04T21:28:06.089Z,0.40
2018-01-04T21:30:34.398Z,1.63
2018-01-04T21:33:01.917Z,0.40
2018-01-04T21:35:30.197Z,0.97
2018-01-04T21:37:58.854Z,1.87
2018-01-04T21:40:26.599Z,1.67
2018-01-04T21:42:54.208Z,2.93
2018-01-04T21:45:21.711Z,6.90
2018-01-04T21:47:49.209Z,5.13
2018-01-04T21:50:17.486Z,10.17
2018-01-04T21:52:45.782Z,7.13
2018-01-04T21:55:13.290Z,8.83
2018-01-04T21:57:40.802Z,9.43
2018-01-04T22:00:08.322Z,12.40
2018-01-04T22:02:35.814Z,9.53
2018-01-04T22:05:03.377Z,11.93
2018-01-04T22:07:30.899Z,10.27
2018-01-04T22:09:58.423Z,11.67
2018-01-04T22:12:25.937Z,16.40
2018-01-04T22:14:53.451Z,8.73
2018-01-04T22:17:20.976Z,10.67
2018-01-04T22:19:48.808Z,6.63
2018-01-04T22:22:17.094Z,12.20
2018-01-04T22:24:44.604Z,6.40
2018-01-04T22:27:12.100Z,10.73
2018-01-04T22:29:40.381Z,14.00
2018-01-04T22:32:08.642Z,11.90
2018-01-04T22:34:36.915Z,13.60
2018-01-04T22:37:06.072Z,10.30
2018-01-04T22:39:34.502Z,13.03
2018-01-04T22:42:02.766Z,9.37
2018-01-04T22:44:31.060Z,9.23
2018-01-04T22:46:58.562Z,10.70
2018-01-04T22:49:26.060Z,16.53
2018-01-04T22:51:54.326Z,15.10
2018-01-04T22:54:22.586Z,7.90
2018-01-04T22:56:50.087Z,13.03
2018-01-04T22:59:17.586Z,12.73
2018-01-04T23:01:45.094Z,14.70
2018-01-04T23:04:12.598Z,17.60
2018-01-04T23:06:40.098Z,19.40
2018-01-04T23:09:08.366Z,17.70
2018-01-04T23:11:36.640Z,15.03
2018-01-04T23:14:04.931Z,17.27
2018-01-04T23:16:32.642Z,13.70
2018-01-04T23:19:00.151Z,12.83
2018-01-04T23:21:28.424Z,13.97
2018-01-04T23:23:55.955Z,16.70
2018-01-04T23:26:23.472Z,16.37
2018-01-04T23:28:50.970Z,12.87
2018-01-04T23:31:18.466Z,15.23
2018-01-04T23:33:45.958Z,13.03
2018-01-04T23:36:13.461Z,11.43
2018-01-04T23:38:41.718Z,20.20
2018-01-04T23:41:09.210Z,15.80
2018-01-04T23:43:36.656Z,14.70
2018-01-04T23:46:04.922Z,16.27
2018-01-04T23:48:33.167Z,13.77
2018-01-04T23:51:00.627Z,15.27
2018-01-04T23:53:28.122Z,23.03
2018-01-04T23:55:56.377Z,17.77
2018-01-04T23:58:24.611Z,13.93
